sensor_id;sensor_type;location;lat;lon;timestamp;pressure;altitude;pressure_sealevel;temperature;humidity
50226;BME280;36113;50.742;6.432;2022-08-23T00:01:55;98520.47;;;17.99;89.52
50226;BME280;36113;50.742;6.432;2022-08-23T00:04:28;98513.84;;;17.95;89.68
50226;BME280;36113;50.742;6.432;2022-08-23T00:06:54;98515.22;;;17.99;89.99
50226;BME280;36113;50.742;6.432;2022-08-23T00:09:21;98514.28;;;18.01;89.69
50226;BME280;36113;50.742;6.432;2022-08-23T00:11:53;98497.69;;;17.79;90.76
50226;BME280;36113;50.742;6.432;2022-08-23T00:14:21;98509.03;;;17.79;91.43
50226;BME280;36113;50.742;6.432;2022-08-23T00:16:47;98503.00;;;17.68;92.65
50226;BME280;36113;50.742;6.432;2022-08-23T00:19:15;98475.00;;;17.47;93.11
50226;BME280;36113;50.742;6.432;2022-08-23T00:21:41;98475.25;;;17.44;94.08
50226;BME280;36113;50.742;6.432;2022-08-23T00:24:09;98456.88;;;17.23;93.67
50226;BME280;36113;50.742;6.432;2022-08-23T00:29:14;98477.84;;;17.23;94.91
50226;BME280;36113;50.742;6.432;2022-08-23T00:31:39;98496.53;;;17.30;95.53
50226;BME280;36113;50.742;6.432;2022-08-23T00:34:04;98475.50;;;17.09;97.01
50226;BME280;36113;50.742;6.432;2022-08-23T00:36:30;98466.88;;;16.97;97.52
50226;BME280;36113;50.742;6.432;2022-08-23T00:38:55;98498.47;;;17.16;97.33
50226;BME280;36113;50.742;6.432;2022-08-23T00:41:20;98483.09;;;17.12;97.72
50226;BME280;36113;50.742;6.432;2022-08-23T00:43:46;98491.38;;;17.07;97.56
50226;BME280;36113;50.742;6.432;2022-08-23T00:46:45;98488.97;;;17.04;97.59
50226;BME280;36113;50.742;6.432;2022-08-23T00:49:32;98484.22;;;16.98;97.43
50226;BME280;36113;50.742;6.432;2022-08-23T00:52:10;98502.91;;;16.93;98.46
50226;BME280;36113;50.742;6.432;2022-08-23T00:54:39;98466.50;;;16.79;99.02
50226;BME280;36113;50.742;6.432;2022-08-23T00:57:12;98490.47;;;16.85;99.74
50226;BME280;36113;50.742;6.432;2022-08-23T00:59:39;98463.53;;;16.72;98.90
50226;BME280;36113;50.742;6.432;2022-08-23T01:02:04;98495.22;;;16.92;98.54
50226;BME280;36113;50.742;6.432;2022-08-23T01:04:33;98492.44;;;16.93;97.81
50226;BME280;36113;50.742;6.432;2022-08-23T01:07:24;98495.78;;;16.95;97.33
50226;BME280;36113;50.742;6.432;2022-08-23T01:09:54;98498.66;;;16.92;97.80
50226;BME280;36113;50.742;6.432;2022-08-23T01:12:34;98484.03;;;16.78;98.26
50226;BME280;36113;50.742;6.432;2022-08-23T01:15:06;98484.97;;;16.77;98.54
50226;BME280;36113;50.742;6.432;2022-08-23T01:17:41;98505.06;;;16.88;98.49
50226;BME280;36113;50.742;6.432;2022-08-23T01:20:14;98506.63;;;16.91;97.74
50226;BME280;36113;50.742;6.432;2022-08-23T01:22:54;98483.56;;;16.73;97.88
50226;BME280;36113;50.742;6.432;2022-08-23T01:25:22;98457.75;;;16.57;97.93
50226;BME280;36113;50.742;6.432;2022-08-23T01:27:49;98503.91;;;16.69;98.50
50226;BME280;36113;50.742;6.432;2022-08-23T01:30:18;98515.78;;;16.74;99.27
50226;BME280;36113;50.742;6.432;2022-08-23T01:32:47;98503.16;;;16.67;99.55
50226;BME280;36113;50.742;6.432;2022-08-23T01:35:14;98515.69;;;16.64;99.99
50226;BME280;36113;50.742;6.432;2022-08-23T01:37:40;98518.09;;;16.56;100.00
50226;BME280;36113;50.742;6.432;2022-08-23T01:40:06;98480.25;;;16.37;100.00
50226;BME280;36113;50.742;6.432;2022-08-23T01:42:32;98500.69;;;16.43;100.00
50226;BME280;36113;50.742;6.432;2022-08-23T01:44:57;98510.22;;;16.44;100.00
50226;BME280;36113;50.742;6.432;2022-08-23T01:47:23;98510.69;;;16.49;100.00
50226;BME280;36113;50.742;6.432;2022-08-23T01:49:49;98500.59;;;16.45;100.00
50226;BME280;36113;50.742;6.432;2022-08-23T01:52:14;98502.38;;;16.44;99.93
50226;BME280;36113;50.742;6.432;2022-08-23T01:54:40;98510.69;;;16.49;99.57
50226;BME280;36113;50.742;6.432;2022-08-23T01:57:05;98505.00;;;16.44;99.39
50226;BME280;36113;50.742;6.432;2022-08-23T01:59:31;98516.75;;;16.50;99.78
50226;BME280;36113;50.742;6.432;2022-08-23T02:01:58;98474.44;;;16.22;100.00
50226;BME280;36113;50.742;6.432;2022-08-23T02:04:23;98513.06;;;16.41;100.00
50226;BME280;36113;50.742;6.432;2022-08-23T02:06:49;98503.09;;;16.35;99.65
50226;BME280;36113;50.742;6.432;2022-08-23T02:09:14;98514.16;;;16.39;99.97
50226;BME280;36113;50.742;6.432;2022-08-23T02:11:41;98518.22;;;16.31;100.00
50226;BME280;36113;50.742;6.432;2022-08-23T02:14:08;98515.81;;;16.28;99.88
50226;BME280;36113;50.742;6.432;2022-08-23T02:16:37;98499.88;;;16.20;99.34
50226;BME280;36113;50.742;6.432;2022-08-23T02:19:07;98478.44;;;16.04;99.38
50226;BME280;36113;50.742;6.432;2022-08-23T02:21:34;98510.00;;;16.25;99.44
50226;BME280;36113;50.742;6.432;2022-08-23T02:24:07;98487.97;;;16.05;98.74
50226;BME280;36113;50.742;6.432;2022-08-23T02:26:35;98496.91;;;16.13;97.94
50226;BME280;36113;50.742;6.432;2022-08-23T02:29:00;98524.38;;;16.30;97.75
50226;BME280;36113;50.742;6.432;2022-08-23T02:31:26;98480.09;;;15.93;97.16
50226;BME280;36113;50.742;6.432;2022-08-23T02:33:51;98488.31;;;16.00;97.67
50226;BME280;36113;50.742;6.432;2022-08-23T02:36:16;98519.13;;;16.19;98.06
50226;BME280;36113;50.742;6.432;2022-08-23T02:38:42;98502.00;;;16.04;97.98
50226;BME280;36113;50.742;6.432;2022-08-23T02:41:07;98524.25;;;16.21;98.41
50226;BME280;36113;50.742;6.432;2022-08-23T02:43:33;98525.66;;;16.13;98.62
50226;BME280;36113;50.742;6.432;2022-08-23T02:46:01;98527.34;;;16.15;98.23
50226;BME280;36113;50.742;6.432;2022-08-23T02:48:30;98503.66;;;16.05;97.86
50226;BME280;36113;50.742;6.432;2022-08-23T02:50:58;98530.31;;;16.33;97.24
50226;BME280;36113;50.742;6.432;2022-08-23T02:53:24;98529.63;;;16.42;96.46
50226;BME280;36113;50.742;6.432;2022-08-23T02:55:50;98514.03;;;16.40;96.23
50226;BME280;36113;50.742;6.432;2022-08-23T02:58:15;98498.56;;;16.37;96.42
50226;BME280;36113;50.742;6.432;2022-08-23T03:00:45;98498.56;;;16.37;95.98
50226;BME280;36113;50.742;6.432;2022-08-23T03:03:11;98515.34;;;16.57;95.60
50226;BME280;36113;50.742;6.432;2022-08-23T03:05:36;98505.00;;;16.56;95.42
50226;BME280;36113;50.742;6.432;2022-08-23T03:08:02;98521.06;;;16.62;95.47
50226;BME280;36113;50.742;6.432;2022-08-23T03:10:27;98499.75;;;16.44;95.08
50226;BME280;36113;50.742;6.432;2022-08-23T03:12:53;98526.16;;;16.53;95.57
50226;BME280;36113;50.742;6.432;2022-08-23T03:15:18;98533.56;;;16.47;96.02
50226;BME280;36113;50.742;6.432;2022-08-23T03:17:44;98529.00;;;16.38;96.62
50226;BME280;36113;50.742;6.432;2022-08-23T03:20:09;98494.06;;;16.17;96.78
50226;BME280;36113;50.742;6.432;2022-08-23T03:22:35;98500.34;;;16.14;97.07
50226;BME280;36113;50.742;6.432;2022-08-23T03:25:02;98527.47;;;16.24;97.48
50226;BME280;36113;50.742;6.432;2022-08-23T03:27:28;98530.56;;;16.18;98.29
50226;BME280;36113;50.742;6.432;2022-08-23T03:29:55;98530.91;;;16.13;99.16
50226;BME280;36113;50.742;6.432;2022-08-23T03:32:21;98521.03;;;16.06;99.48
50226;BME280;36113;50.742;6.432;2022-08-23T03:34:46;98536.25;;;16.12;99.47
50226;BME280;36113;50.742;6.432;2022-08-23T03:37:11;98534.72;;;16.09;99.26
50226;BME280;36113;50.742;6.432;2022-08-23T03:39:37;98509.50;;;15.97;99.53
50226;BME280;36113;50.742;6.432;2022-08-23T03:42:03;98539.09;;;16.09;99.93
50226;BME280;36113;50.742;6.432;2022-08-23T03:44:28;98517.94;;;16.01;99.56
50226;BME280;36113;50.742;6.432;2022-08-23T03:46:54;98542.06;;;16.04;99.52
50226;BME280;36113;50.742;6.432;2022-08-23T03:49:19;98543.00;;;16.03;100.00
50226;BME280;36113;50.742;6.432;2022-08-23T03:51:45;98509.31;;;15.76;100.00
50226;BME280;36113;50.742;6.432;2022-08-23T03:54:10;98544.91;;;16.01;100.00
50226;BME280;36113;50.742;6.432;2022-08-23T03:56:38;98556.56;;;15.97;100.00
50226;BME280;36113;50.742;6.432;2022-08-23T03:59:13;98530.59;;;15.83;100.00
50226;BME280;36113;50.742;6.432;2022-08-23T04:01:38;98558.59;;;16.05;100.00
50226;BME280;36113;50.742;6.432;2022-08-23T04:04:04;98558.69;;;15.92;100.00
50226;BME280;36113;50.742;6.432;2022-08-23T04:06:29;98573.69;;;16.01;100.00
50226;BME280;36113;50.742;6.432;2022-08-23T04:08:55;98558.34;;;15.97;100.00
50226;BME280;36113;50.742;6.432;2022-08-23T04:11:24;98527.50;;;15.78;100.00
50226;BME280;36113;50.742;6.432;2022-08-23T04:13:50;98579.28;;;16.08;100.00
50226;BME280;36113;50.742;6.432;2022-08-23T04:16:16;98556.44;;;15.99;100.00
50226;BME280;36113;50.742;6.432;2022-08-23T04:18:43;98580.16;;;16.20;100.00
50226;BME280;36113;50.742;6.432;2022-08-23T04:21:12;98563.94;;;16.03;100.00
50226;BME280;36113;50.742;6.432;2022-08-23T04:23:38;98574.91;;;16.20;100.00
50226;BME280;36113;50.742;6.432;2022-08-23T04:26:05;98580.63;;;16.25;100.00
50226;BME280;36113;50.742;6.432;2022-08-23T04:28:32;98572.03;;;16.23;100.00
50226;BME280;36113;50.742;6.432;2022-08-23T04:30:57;98567.06;;;16.20;100.00
50226;BME280;36113;50.742;6.432;2022-08-23T04:33:25;98583.47;;;16.33;100.00
50226;BME280;36113;50.742;6.432;2022-08-23T04:35:51;98578.50;;;16.30;100.00
50226;BME280;36113;50.742;6.432;2022-08-23T04:38:16;98547.78;;;16.21;100.00
50226;BME280;36113;50.742;6.432;2022-08-23T04:40:42;98580.88;;;16.44;99.69
50226;BME280;36113;50.742;6.432;2022-08-23T04:43:26;98591.13;;;16.47;99.08
50226;BME280;36113;50.742;6.432;2022-08-23T04:45:51;98557.53;;;16.19;100.00
50226;BME280;36113;50.742;6.432;2022-08-23T04:48:17;98553.59;;;16.02;100.00
50226;BME280;36113;50.742;6.432;2022-08-23T04:50:42;98573.47;;;16.04;100.00
50226;BME280;36113;50.742;6.432;2022-08-23T04:53:08;98595.66;;;15.99;100.00
50226;BME280;36113;50.742;6.432;2022-08-23T04:55:33;98576.25;;;15.79;100.00
50226;BME280;36113;50.742;6.432;2022-08-23T04:57:59;98579.25;;;15.72;100.00
50226;BME280;36113;50.742;6.432;2022-08-23T05:00:24;98602.38;;;15.79;100.00
50226;BME280;36113;50.742;6.432;2022-08-23T05:02:49;98598.81;;;15.80;100.00
50226;BME280;36113;50.742;6.432;2022-08-23T05:05:15;98590.13;;;15.79;100.00
50226;BME280;36113;50.742;6.432;2022-08-23T05:07:40;98601.84;;;15.98;100.00
50226;BME280;36113;50.742;6.432;2022-08-23T05:10:07;98603.50;;;15.99;100.00
50226;BME280;36113;50.742;6.432;2022-08-23T05:12:34;98610.06;;;16.04;100.00
50226;BME280;36113;50.742;6.432;2022-08-23T05:14:59;98606.50;;;16.05;100.00
50226;BME280;36113;50.742;6.432;2022-08-23T05:17:25;98606.38;;;16.07;100.00
50226;BME280;36113;50.742;6.432;2022-08-23T05:19:51;98598.19;;;16.11;100.00
50226;BME280;36113;50.742;6.432;2022-08-23T05:22:16;98609.53;;;16.23;100.00
50226;BME280;36113;50.742;6.432;2022-08-23T05:24:42;98595.97;;;16.18;100.00
50226;BME280;36113;50.742;6.432;2022-08-23T05:27:07;98610.75;;;16.42;100.00
50226;BME280;36113;50.742;6.432;2022-08-23T05:29:34;98595.13;;;16.29;100.00
50226;BME280;36113;50.742;6.432;2022-08-23T05:31:59;98617.44;;;16.57;100.00
50226;BME280;36113;50.742;6.432;2022-08-23T05:34:25;98618.25;;;16.69;100.00
50226;BME280;36113;50.742;6.432;2022-08-23T05:36:51;98603.63;;;16.66;100.00
50226;BME280;36113;50.742;6.432;2022-08-23T05:39:17;98594.22;;;16.75;99.61
50226;BME280;36113;50.742;6.432;2022-08-23T05:41:42;98625.16;;;17.15;98.48
50226;BME280;36113;50.742;6.432;2022-08-23T05:44:09;98635.03;;;17.34;98.01
50226;BME280;36113;50.742;6.432;2022-08-23T05:46:35;98630.75;;;17.33;98.30
50226;BME280;36113;50.742;6.432;2022-08-23T05:49:01;98619.56;;;17.31;97.93
50226;BME280;36113;50.742;6.432;2022-08-23T05:51:28;98644.50;;;17.69;96.68
50226;BME280;36113;50.742;6.432;2022-08-23T05:54:01;98639.56;;;17.87;96.21
50226;BME280;36113;50.742;6.432;2022-08-23T05:58:57;98641.75;;;17.71;96.48
50226;BME280;36113;50.742;6.432;2022-08-23T06:01:24;98626.03;;;17.59;96.46
50226;BME280;36113;50.742;6.432;2022-08-23T06:03:51;98649.53;;;17.50;97.34
50226;BME280;36113;50.742;6.432;2022-08-23T06:06:17;98651.22;;;17.39;97.18
50226;BME280;36113;50.742;6.432;2022-08-23T06:08:44;98653.97;;;17.38;97.64
50226;BME280;36113;50.742;6.432;2022-08-23T06:11:19;98644.22;;;17.17;97.97
50226;BME280;36113;50.742;6.432;2022-08-23T06:13:47;98666.13;;;17.28;97.99
50226;BME280;36113;50.742;6.432;2022-08-23T06:16:15;98620.66;;;17.06;97.85
50226;BME280;36113;50.742;6.432;2022-08-23T06:18:42;98639.44;;;17.22;98.22
50226;BME280;36113;50.742;6.432;2022-08-23T06:21:10;98642.06;;;17.22;98.49
50226;BME280;36113;50.742;6.432;2022-08-23T06:23:36;98655.88;;;17.36;98.38
50226;BME280;36113;50.742;6.432;2022-08-23T06:26:13;98668.72;;;17.50;97.56
50226;BME280;36113;50.742;6.432;2022-08-23T06:28:40;98658.59;;;17.46;97.79
50226;BME280;36113;50.742;6.432;2022-08-23T06:31:06;98668.16;;;17.47;97.69
50226;BME280;36113;50.742;6.432;2022-08-23T06:33:32;98678.59;;;17.58;98.22
50226;BME280;36113;50.742;6.432;2022-08-23T06:36:06;98678.47;;;17.71;97.59
50226;BME280;36113;50.742;6.432;2022-08-23T06:38:32;98678.78;;;17.77;97.46
50226;BME280;36113;50.742;6.432;2022-08-23T06:41:09;98671.75;;;17.78;97.99
50226;BME280;36113;50.742;6.432;2022-08-23T06:43:36;98677.56;;;17.93;97.18
50226;BME280;36113;50.742;6.432;2022-08-23T06:46:20;98674.72;;;18.17;95.89
50226;BME280;36113;50.742;6.432;2022-08-23T06:48:46;98675.00;;;18.35;94.63
50226;BME280;36113;50.742;6.432;2022-08-23T06:51:17;98681.34;;;18.53;94.07
50226;BME280;36113;50.742;6.432;2022-08-23T06:53:44;98676.19;;;18.73;93.36
50226;BME280;36113;50.742;6.432;2022-08-23T06:56:10;98676.84;;;18.86;92.36
50226;BME280;36113;50.742;6.432;2022-08-23T06:58:35;98646.16;;;18.87;92.02
50226;BME280;36113;50.742;6.432;2022-08-23T07:03:36;98683.28;;;19.44;92.46
50226;BME280;36113;50.742;6.432;2022-08-23T07:06:01;98665.97;;;19.51;91.41
50226;BME280;36113;50.742;6.432;2022-08-23T07:08:26;98681.28;;;19.77;90.57
50226;BME280;36113;50.742;6.432;2022-08-23T07:10:55;98676.63;;;20.00;89.38
50226;BME280;36113;50.742;6.432;2022-08-23T07:13:20;98681.88;;;20.29;88.79
50226;BME280;36113;50.742;6.432;2022-08-23T07:15:47;98684.31;;;20.50;86.19
50226;BME280;36113;50.742;6.432;2022-08-23T07:18:12;98649.13;;;20.51;85.16
50226;BME280;36113;50.742;6.432;2022-08-23T07:20:37;98684.63;;;21.04;84.53
50226;BME280;36113;50.742;6.432;2022-08-23T07:23:03;98682.84;;;21.32;84.22
50226;BME280;36113;50.742;6.432;2022-08-23T07:25:29;98690.09;;;21.58;81.02
50226;BME280;36113;50.742;6.432;2022-08-23T07:27:55;98693.81;;;21.83;76.51
50226;BME280;36113;50.742;6.432;2022-08-23T07:30:20;98695.88;;;22.07;73.24
50226;BME280;36113;50.742;6.432;2022-08-23T07:32:45;98691.47;;;22.34;72.83
50226;BME280;36113;50.742;6.432;2022-08-23T07:35:11;98686.53;;;22.57;70.07
50226;BME280;36113;50.742;6.432;2022-08-23T07:37:37;98674.88;;;22.68;66.27
50226;BME280;36113;50.742;6.432;2022-08-23T07:40:03;98690.56;;;22.96;65.01
50226;BME280;36113;50.742;6.432;2022-08-23T07:42:31;98704.94;;;23.19;63.25
50226;BME280;36113;50.742;6.432;2022-08-23T07:44:56;98688.44;;;23.34;63.54
50226;BME280;36113;50.742;6.432;2022-08-23T07:47:21;98697.28;;;23.51;62.28
50226;BME280;36113;50.742;6.432;2022-08-23T07:49:47;98698.28;;;23.58;61.37
50226;BME280;36113;50.742;6.432;2022-08-23T07:52:12;98679.94;;;23.65;63.16
50226;BME280;36113;50.742;6.432;2022-08-23T07:54:37;98702.38;;;23.95;60.62
50226;BME280;36113;50.742;6.432;2022-08-23T07:57:03;98708.69;;;24.10;61.23
50226;BME280;36113;50.742;6.432;2022-08-23T07:59:28;98702.22;;;23.96;57.61
50226;BME280;36113;50.742;6.432;2022-08-23T08:01:53;98697.56;;;23.90;58.23
50226;BME280;36113;50.742;6.432;2022-08-23T08:04:19;98693.94;;;24.08;59.29
50226;BME280;36113;50.742;6.432;2022-08-23T08:06:47;98707.34;;;24.39;60.50
50226;BME280;36113;50.742;6.432;2022-08-23T08:09:14;98698.25;;;24.42;58.04
50226;BME280;36113;50.742;6.432;2022-08-23T08:11:43;98698.75;;;24.53;56.32
50226;BME280;36113;50.742;6.432;2022-08-23T08:14:09;98712.53;;;24.57;56.35
50226;BME280;36113;50.742;6.432;2022-08-23T08:16:39;98711.84;;;24.80;56.22
50226;BME280;36113;50.742;6.432;2022-08-23T08:19:07;98726.06;;;24.79;54.71
50226;BME280;36113;50.742;6.432;2022-08-23T08:21:34;98725.09;;;24.80;53.75
50226;BME280;36113;50.742;6.432;2022-08-23T08:24:00;98718.75;;;24.97;54.47
50226;BME280;36113;50.742;6.432;2022-08-23T08:26:26;98727.66;;;25.13;54.86
50226;BME280;36113;50.742;6.432;2022-08-23T08:28:52;98724.66;;;25.24;53.75
50226;BME280;36113;50.742;6.432;2022-08-23T08:31:20;98719.34;;;25.24;53.47
50226;BME280;36113;50.742;6.432;2022-08-23T08:33:46;98732.41;;;25.42;53.70
50226;BME280;36113;50.742;6.432;2022-08-23T08:36:33;98729.38;;;25.53;52.44
50226;BME280;36113;50.742;6.432;2022-08-23T08:39:02;98729.38;;;25.53;51.30
50226;BME280;36113;50.742;6.432;2022-08-23T08:44:18;98731.47;;;25.66;49.98
50226;BME280;36113;50.742;6.432;2022-08-23T08:46:49;98727.22;;;25.49;50.04
50226;BME280;36113;50.742;6.432;2022-08-23T08:54:44;98720.19;;;25.64;50.50
50226;BME280;36113;50.742;6.432;2022-08-23T08:57:14;98736.34;;;25.86;51.12
50226;BME280;36113;50.742;6.432;2022-08-23T08:59:54;98744.59;;;25.99;48.94
50226;BME280;36113;50.742;6.432;2022-08-23T09:02:21;98722.69;;;25.97;50.54
50226;BME280;36113;50.742;6.432;2022-08-23T09:04:48;98736.88;;;26.12;49.94
50226;BME280;36113;50.742;6.432;2022-08-23T09:07:37;98721.69;;;25.98;48.46
50226;BME280;36113;50.742;6.432;2022-08-23T09:10:23;98731.13;;;26.00;48.41
50226;BME280;36113;50.742;6.432;2022-08-23T09:15:46;98737.31;;;25.93;50.03
50226;BME280;36113;50.742;6.432;2022-08-23T09:18:17;98737.69;;;26.13;49.21
50226;BME280;36113;50.742;6.432;2022-08-23T09:20:43;98725.81;;;26.00;48.52
50226;BME280;36113;50.742;6.432;2022-08-23T09:23:22;98738.88;;;26.10;48.01
50226;BME280;36113;50.742;6.432;2022-08-23T09:25:52;98731.91;;;26.09;49.03
50226;BME280;36113;50.742;6.432;2022-08-23T09:28:18;98730.13;;;26.25;48.27
50226;BME280;36113;50.742;6.432;2022-08-23T09:30:52;98734.91;;;26.06;48.87
50226;BME280;36113;50.742;6.432;2022-08-23T09:33:21;98742.22;;;26.04;49.51
50226;BME280;36113;50.742;6.432;2022-08-23T09:36:25;98737.16;;;26.17;48.00
50226;BME280;36113;50.742;6.432;2022-08-23T09:39:00;98738.56;;;26.28;47.93
50226;BME280;36113;50.742;6.432;2022-08-23T09:41:31;98738.34;;;26.38;47.97
50226;BME280;36113;50.742;6.432;2022-08-23T09:43:57;98728.28;;;26.02;47.60
50226;BME280;36113;50.742;6.432;2022-08-23T09:46:29;98729.97;;;26.03;49.68
50226;BME280;36113;50.742;6.432;2022-08-23T09:48:56;98734.16;;;26.20;49.07
50226;BME280;36113;50.742;6.432;2022-08-23T09:51:36;98717.75;;;25.86;49.35
50226;BME280;36113;50.742;6.432;2022-08-23T09:54:12;98723.47;;;25.74;48.81
50226;BME280;36113;50.742;6.432;2022-08-23T09:56:43;98727.53;;;25.54;49.69
50226;BME280;36113;50.742;6.432;2022-08-23T09:59:30;98700.38;;;25.43;50.05
50226;BME280;36113;50.742;6.432;2022-08-23T10:01:59;98723.22;;;25.53;51.16
50226;BME280;36113;50.742;6.432;2022-08-23T10:06:53;98722.75;;;26.12;49.31
50226;BME280;36113;50.742;6.432;2022-08-23T10:09:30;98707.47;;;26.14;48.57
50226;BME280;36113;50.742;6.432;2022-08-23T10:11:58;98701.19;;;26.07;48.14
50226;BME280;36113;50.742;6.432;2022-08-23T10:14:25;98720.84;;;25.97;48.31
50226;BME280;36113;50.742;6.432;2022-08-23T10:17:29;98726.53;;;25.86;48.90
50226;BME280;36113;50.742;6.432;2022-08-23T10:23:28;98724.34;;;25.98;50.10
50226;BME280;36113;50.742;6.432;2022-08-23T10:25:59;98718.09;;;26.14;49.09
50226;BME280;36113;50.742;6.432;2022-08-23T10:28:50;98722.03;;;26.41;48.68
50226;BME280;36113;50.742;6.432;2022-08-23T10:31:50;98687.78;;;26.23;48.21
50226;BME280;36113;50.742;6.432;2022-08-23T10:37:18;98695.00;;;26.52;47.30
50226;BME280;36113;50.742;6.432;2022-08-23T10:39:45;98695.16;;;27.04;46.23
50226;BME280;36113;50.742;6.432;2022-08-23T10:42:30;98728.97;;;27.48;44.88
50226;BME280;36113;50.742;6.432;2022-08-23T10:50:36;98693.41;;;27.26;45.40
50226;BME280;36113;50.742;6.432;2022-08-23T10:53:11;98717.88;;;27.29;43.97
50226;BME280;36113;50.742;6.432;2022-08-23T10:55:46;98713.34;;;27.30;44.54
50226;BME280;36113;50.742;6.432;2022-08-23T10:58:42;98695.03;;;27.72;44.61
50226;BME280;36113;50.742;6.432;2022-08-23T11:01:12;98683.00;;;27.61;43.50
50226;BME280;36113;50.742;6.432;2022-08-23T11:09:08;98720.56;;;26.76;45.99
50226;BME280;36113;50.742;6.432;2022-08-23T11:14:06;98715.34;;;26.68;47.00
50226;BME280;36113;50.742;6.432;2022-08-23T11:16:33;98714.31;;;26.69;46.17
50226;BME280;36113;50.742;6.432;2022-08-23T11:18:58;98715.53;;;26.82;46.25
50226;BME280;36113;50.742;6.432;2022-08-23T11:24:27;98688.28;;;26.65;46.67
50226;BME280;36113;50.742;6.432;2022-08-23T11:31:48;98717.69;;;26.25;47.70
50226;BME280;36113;50.742;6.432;2022-08-23T11:34:27;98686.97;;;26.23;48.35
50226;BME280;36113;50.742;6.432;2022-08-23T11:42:25;98713.97;;;26.72;47.53
50226;BME280;36113;50.742;6.432;2022-08-23T11:44:52;98694.59;;;26.64;47.02
50226;BME280;36113;50.742;6.432;2022-08-23T11:47:27;98711.22;;;26.81;46.35
50226;BME280;36113;50.742;6.432;2022-08-23T11:50:28;98705.25;;;26.93;46.49
50226;BME280;36113;50.742;6.432;2022-08-23T11:53:15;98691.69;;;27.03;46.25
50226;BME280;36113;50.742;6.432;2022-08-23T12:01:32;98708.22;;;27.13;46.43
50226;BME280;36113;50.742;6.432;2022-08-23T12:04:00;98703.59;;;27.07;46.12
50226;BME280;36113;50.742;6.432;2022-08-23T12:06:38;98692.81;;;26.94;46.34
50226;BME280;36113;50.742;6.432;2022-08-23T12:09:48;98682.50;;;27.06;47.13
50226;BME280;36113;50.742;6.432;2022-08-23T12:19:58;98674.97;;;27.24;46.26
50226;BME280;36113;50.742;6.432;2022-08-23T12:25:25;98687.41;;;27.32;45.58
50226;BME280;36113;50.742;6.432;2022-08-23T12:28:20;98692.31;;;27.35;44.72
50226;BME280;36113;50.742;6.432;2022-08-23T12:31:17;98689.75;;;27.27;45.36
50226;BME280;36113;50.742;6.432;2022-08-23T12:34:14;98694.41;;;26.80;46.66
50226;BME280;36113;50.742;6.432;2022-08-23T12:39:34;98685.91;;;27.00;45.62
50226;BME280;36113;50.742;6.432;2022-08-23T12:42:13;98673.13;;;26.80;46.32
50226;BME280;36113;50.742;6.432;2022-08-23T12:44:41;98674.09;;;26.87;46.39
50226;BME280;36113;50.742;6.432;2022-08-23T12:47:16;98694.34;;;26.88;46.67
50226;BME280;36113;50.742;6.432;2022-08-23T12:49:54;98681.22;;;26.87;46.96
50226;BME280;36113;50.742;6.432;2022-08-23T12:52:28;98700.69;;;27.17;46.57
50226;BME280;36113;50.742;6.432;2022-08-23T12:54:53;98687.06;;;27.57;45.64
50226;BME280;36113;50.742;6.432;2022-08-23T12:57:32;98668.03;;;27.96;44.64
50226;BME280;36113;50.742;6.432;2022-08-23T13:02:55;98691.78;;;28.13;43.10
50226;BME280;36113;50.742;6.432;2022-08-23T13:05:30;98676.41;;;27.57;44.95
50226;BME280;36113;50.742;6.432;2022-08-23T13:07:59;98695.19;;;27.34;46.60
50226;BME280;36113;50.742;6.432;2022-08-23T13:10:26;98703.47;;;27.39;46.82
50226;BME280;36113;50.742;6.432;2022-08-23T13:12:51;98700.03;;;27.45;46.52
50226;BME280;36113;50.742;6.432;2022-08-23T13:15:46;98705.53;;;27.58;46.02
50226;BME280;36113;50.742;6.432;2022-08-23T13:23:44;98708.75;;;27.24;45.93
50226;BME280;36113;50.742;6.432;2022-08-23T13:26:37;98702.34;;;27.18;46.63
50226;BME280;36113;50.742;6.432;2022-08-23T13:29:10;98706.72;;;27.11;46.34
50226;BME280;36113;50.742;6.432;2022-08-23T13:34:34;98697.19;;;26.87;47.34
50226;BME280;36113;50.742;6.432;2022-08-23T13:37:03;98696.00;;;27.04;46.84
50226;BME280;36113;50.742;6.432;2022-08-23T13:39:30;98700.13;;;27.07;46.89
50226;BME280;36113;50.742;6.432;2022-08-23T13:41:56;98680.69;;;27.06;46.71
50226;BME280;36113;50.742;6.432;2022-08-23T13:44:22;98690.03;;;27.17;46.36
50226;BME280;36113;50.742;6.432;2022-08-23T13:46:48;98706.56;;;27.42;46.25
50226;BME280;36113;50.742;6.432;2022-08-23T13:49:25;98700.41;;;27.42;46.05
50226;BME280;36113;50.742;6.432;2022-08-23T13:54:24;98677.19;;;27.36;45.27
50226;BME280;36113;50.742;6.432;2022-08-23T13:56:54;98676.69;;;27.47;45.22
50226;BME280;36113;50.742;6.432;2022-08-23T13:59:28;98688.91;;;27.78;44.72
50226;BME280;36113;50.742;6.432;2022-08-23T14:05:20;98685.19;;;27.72;44.47
50226;BME280;36113;50.742;6.432;2022-08-23T14:07:47;98683.59;;;27.78;44.60
50226;BME280;36113;50.742;6.432;2022-08-23T14:10:17;98685.97;;;27.87;43.92
50226;BME280;36113;50.742;6.432;2022-08-23T14:12:44;98663.69;;;27.95;44.74
50226;BME280;36113;50.742;6.432;2022-08-23T14:15:11;98673.69;;;28.08;44.09
50226;BME280;36113;50.742;6.432;2022-08-23T14:17:41;98696.16;;;27.99;44.60
50226;BME280;36113;50.742;6.432;2022-08-23T14:20:07;98663.53;;;27.60;44.50
50226;BME280;36113;50.742;6.432;2022-08-23T14:22:35;98689.34;;;27.60;45.68
50226;BME280;36113;50.742;6.432;2022-08-23T14:25:01;98693.63;;;27.76;45.26
50226;BME280;36113;50.742;6.432;2022-08-23T14:27:26;98700.03;;;27.81;44.96
50226;BME280;36113;50.742;6.432;2022-08-23T14:29:51;98681.50;;;27.73;44.45
50226;BME280;36113;50.742;6.432;2022-08-23T14:32:17;98683.66;;;27.63;44.87
50226;BME280;36113;50.742;6.432;2022-08-23T14:34:42;98661.75;;;27.46;45.08
50226;BME280;36113;50.742;6.432;2022-08-23T14:37:07;98694.88;;;27.80;45.13
50226;BME280;36113;50.742;6.432;2022-08-23T14:39:33;98678.44;;;27.76;44.25
50226;BME280;36113;50.742;6.432;2022-08-23T14:41:58;98669.56;;;27.47;44.85